RYR37SM LMML-EBCI
Flight info
| Callsign | RYR37SM |
|---|---|
| Flight time | N/A |
| Altitude | 36000 |
| Route | GZO M622 SOPIR DCT MABOX DCT ADEXI DCT ROXAN DCT KISTO DCT KONER DCT AOSTA DCT ORSUD DCT MOLUS DCT GILIR DCT PENDU DCT IXILU DCT GIVOR/N0458F320 DCT SORAL DCT IBERA DCT DIK Y37 BATTY |
| Aircraft | B738/M-SDE2E3FGHIRWXY/LB1 |
Departure
| Time | N/A |
|---|---|
| Airport | Malta International Airport (LMML) |
Arrival
| Time | 2026-04-27 23:19 |
|---|---|
| Airport | Brussels South Charleroi Airport (EBCI) |
| Time | Latitude | Longitude | Altitude | Speed | Heading |
|---|---|---|---|---|---|
| 2026-04-27 23:05 | 50.24589 | 4.85583 | 11085 ft | 341 kts | 308° |
| 2026-04-27 23:06 | 50.26037 | 4.82720 | 10918 ft | 330 kts | 308° |
| 2026-04-27 23:06 | 50.27432 | 4.79960 | 10771 ft | 319 kts | 308° |
| 2026-04-27 23:06 | 50.28777 | 4.77295 | 10632 ft | 308 kts | 308° |
| 2026-04-27 23:06 | 50.30091 | 4.74687 | 10511 ft | 299 kts | 308° |
| 2026-04-27 23:07 | 50.31360 | 4.72169 | 10384 ft | 289 kts | 308° |
| 2026-04-27 23:07 | 50.32589 | 4.69726 | 10260 ft | 281 kts | 308° |
| 2026-04-27 23:07 | 50.33781 | 4.67353 | 10092 ft | 275 kts | 308° |
| 2026-04-27 23:07 | 50.34945 | 4.64981 | 9790 ft | 273 kts | 302° |
| 2026-04-27 23:08 | 50.35568 | 4.62216 | 9479 ft | 271 kts | 274° |
| 2026-04-27 23:08 | 50.35482 | 4.59287 | 9233 ft | 268 kts | 264° |
| 2026-04-27 23:08 | 50.35251 | 4.56425 | 8947 ft | 269 kts | 263° |
| 2026-04-27 23:08 | 50.34999 | 4.53518 | 8578 ft | 270 kts | 262° |
| 2026-04-27 23:09 | 50.34826 | 4.51550 | 8361 ft | 271 kts | 262° |
| 2026-04-27 23:09 | 50.34482 | 4.47677 | 7880 ft | 270 kts | 261° |
| 2026-04-27 23:09 | 50.34193 | 4.45755 | 7618 ft | 268 kts | 253° |
| 2026-04-27 23:09 | 50.33445 | 4.42058 | 7153 ft | 264 kts | 252° |
| 2026-04-27 23:10 | 50.32896 | 4.39380 | 6863 ft | 259 kts | 252° |
| 2026-04-27 23:10 | 50.32350 | 4.36719 | 6561 ft | 255 kts | 252° |
| 2026-04-27 23:10 | 50.31810 | 4.34091 | 6223 ft | 252 kts | 252° |
| 2026-04-27 23:10 | 50.31449 | 4.32328 | 5999 ft | 250 kts | 252° |
| 2026-04-27 23:11 | 50.30926 | 4.29776 | 5667 ft | 248 kts | 252° |
| 2026-04-27 23:11 | 50.30404 | 4.27216 | 5338 ft | 246 kts | 252° |
| 2026-04-27 23:11 | 50.29887 | 4.24676 | 5013 ft | 244 kts | 252° |
| 2026-04-27 23:11 | 50.29423 | 4.22129 | 4662 ft | 242 kts | 263° |
| 2026-04-27 23:12 | 50.29610 | 4.19548 | 4345 ft | 238 kts | 288° |
| 2026-04-27 23:12 | 50.30144 | 4.17122 | 4084 ft | 234 kts | 291° |
| 2026-04-27 23:12 | 50.30799 | 4.14963 | 3817 ft | 229 kts | 311° |
| 2026-04-27 23:12 | 50.32117 | 4.13530 | 3551 ft | 220 kts | 346° |
| 2026-04-27 23:13 | 50.33609 | 4.13545 | 3377 ft | 214 kts | 19° |
| 2026-04-27 23:13 | 50.34973 | 4.14424 | 3245 ft | 212 kts | 25° |
| 2026-04-27 23:13 | 50.36316 | 4.15391 | 3056 ft | 213 kts | 27° |
| 2026-04-27 23:13 | 50.37583 | 4.16484 | 2950 ft | 204 kts | 38° |
| 2026-04-27 23:14 | 50.38453 | 4.18113 | 2925 ft | 190 kts | 66° |
| 2026-04-27 23:14 | 50.38787 | 4.20081 | 2919 ft | 184 kts | 74° |
| 2026-04-27 23:14 | 50.39249 | 4.21939 | 2837 ft | 183 kts | 68° |
| 2026-04-27 23:14 | 50.39741 | 4.23726 | 2757 ft | 173 kts | 66° |
| 2026-04-27 23:15 | 50.40213 | 4.25412 | 2722 ft | 166 kts | 66° |
| 2026-04-27 23:15 | 50.40687 | 4.27075 | 2606 ft | 168 kts | 66° |
| 2026-04-27 23:15 | 50.41167 | 4.28731 | 2466 ft | 166 kts | 66° |
| 2026-04-27 23:15 | 50.41639 | 4.30352 | 2357 ft | 161 kts | 66° |
| 2026-04-27 23:16 | 50.42106 | 4.31968 | 2136 ft | 163 kts | 66° |
| 2026-04-27 23:16 | 50.42572 | 4.33552 | 1994 ft | 156 kts | 66° |
| 2026-04-27 23:16 | 50.43021 | 4.35084 | 1839 ft | 150 kts | 65° |
| 2026-04-27 23:16 | 50.43439 | 4.36512 | 1658 ft | 141 kts | 65° |
| 2026-04-27 23:17 | 50.43845 | 4.37901 | 1489 ft | 138 kts | 66° |
| 2026-04-27 23:17 | 50.44235 | 4.39255 | 1329 ft | 140 kts | 65° |
| 2026-04-27 23:17 | 50.44640 | 4.40663 | 1160 ft | 143 kts | 65° |
| 2026-04-27 23:17 | 50.45057 | 4.42087 | 947 ft | 144 kts | 64° |
| 2026-04-27 23:18 | 50.45465 | 4.43498 | 734 ft | 140 kts | 63° |
| 2026-04-27 23:18 | 50.45856 | 4.44842 | 627 ft | 128 kts | 63° |
| 2026-04-27 23:18 | 50.46186 | 4.45976 | 625 ft | 97 kts | 65° |
| 2026-04-27 23:18 | 50.46418 | 4.46772 | 617 ft | 63 kts | 65° |
| 2026-04-27 23:19 | 50.46553 | 4.47238 | 621 ft | 36 kts | 65° |
| 2026-04-27 23:19 | 50.46649 | 4.47570 | 618 ft | 29 kts | 65° |
| 2026-04-27 23:19 | 50.46725 | 4.47728 | 615 ft | 14 kts | 12° |
| 2026-04-27 23:19 | 50.46817 | 4.47684 | 615 ft | 14 kts | 336° |
| 2026-04-27 23:20 | 50.46899 | 4.47615 | 625 ft | 13 kts | 306° |
| 2026-04-27 23:20 | 50.46908 | 4.47514 | 612 ft | 7 kts | 317° |
| 2026-04-27 23:20 | 50.46952 | 4.47479 | 618 ft | 7 kts | 335° |
| 2026-04-27 23:20 | 50.46977 | 4.47461 | 616 ft | 0 kts | 334° |